Welcome to our Virtual Airline
Sign-in:

Flight MFC6291

  • Submitted By: Brad Allen
  • Departure Airport: Point Baker SPB (KPB)
  • Arrival Airport: Cape Pole SPB (Z71)
  • Aircraft: C185F (N185TMM)
  • Flight Time: 00.16.11
  • Date Submitted: 2018/04/03
  • Route: FOLLOW THE TOUR FP
  • Status: Accepted
Flight Details
Gross Revenue:
(3 load / $ 49.00 per unit
$ 147.00
Fuel Cost:
(10.8862 fuel used @ 5.1 / unit)
$ 55.52

Additional Log Information:

View Log

[18:23] ----- Flight Opened -----
[18:23] Cigar Box - 1.1.2.0
[18:23] FS: Prepar3D
[18:23] FSUIPC: v4.973
[18:23] Flight Number: MFC6291
[18:23] FS Aircraft: C185F SKYWAGON AMPHIBIAN N2449F
[18:23] FS Model: C185
[18:23] FS Type: Cessna
[18:23] Departure: KPB
[18:23] Arrival: Z71
[18:23] Flight Level: 1500
[18:23] Flight Type: H
[18:23] Passengers: 3
[18:23] FOB: 384 lbs
[18:23] Gate: n/a
[18:23] NOTE: Parking Brake Ignored
[18:23] Crash Detection: Disabled
[18:23] Engines: 1 Piston
[18:23] NOTE: Boarding has started
[18:23] Landing Gear: Retracted
[18:23] Engine 1: Started
[18:23] Light Data: Navigation ON
[18:23] Light Data: Beacon ON
[18:23] Light Data: Landing lights ON
[18:23] Light Data: Taxi lights ON
[18:23] Light Data: Strobe lights ON
[18:23] Light Data: Instrument lights ON
[18:23] Light Data: Recognition lights ON
[18:23] Light Data: Wing lights ON
[18:23] Light Data: Logo lights ON
[18:23] Light Data: Cabin lights ON
[18:23] Main Door Closed
[18:23] COM1: 128.30
[18:23] COM2: 127.80
[18:23] Transponder: 1200
[18:23] NAV1: 113.70
[18:23] NAV2: 110.60
[18:23] ADF1: 284.0
[18:23] ADF2: 240.0
[18:23] Navigation Mode: NAV
[18:24] NOTE: Taxi started
[18:24] Flaps: Position 1
[18:24] Flaps: Position 2
[18:24] NOTE: ----- TAKE OFF -----
[18:24] GS: 60 knots
[18:24] TAS: 61 knots
[18:24] IAS: 61 knots
[18:24] VS: 4 fpm
[18:24] FOB: 383 lbs
[18:24] Heading: 321°
[18:24] Pitch: 4°
[18:24] Bank: 0°
[18:24] Aircraft Weight: 2488.36 lbs
[18:24] Nearest Airport: KPB
[18:24] Distance: 0.46 miles
[18:24] Runway: ???
[18:24] Ground Surface: Water
[18:24] Ground Condition: Normal
[18:24] NOTE: Weather Report
[18:24] Wind Heading: 338°
[18:24] Wind Speed: 0 knots
[18:24] OAT: 15° C
[18:24] TAT: 15° C
[18:24] Precipitation: None
[18:24] Dew Point: 5° C
[18:24] Visibility: 62 miles
[18:24] METAR: KPBF 032153Z AUTO 22014G21KT 10SM BKN050 BKN060 BKN090 26/17 A2971 RMK AO2 LTG DSNT NW SLP059 T02610172KPBG 032153Z AUTO 17008KT 10SM FEW047 BKN055 OVC075 06/M01 A2993 RMK AO2 SLP137 T00611006KPBH 032215Z AUTO 02012G15KT 3/4SM -SN OVC011 M04/M04 A2980 RMK AO2 T10381043KPBI 032153Z 13009KT 10SM SCT027 26/18 A3002 RMK AO2 SLP166 T02560183KPBX 032215Z AUTO 19011G15KT 160V220 10SM CLR 25/11 A2971 RMK AO2 T02450112
[18:25] NOTE: Climb started
[18:25] Flaps: Position 1
[18:25] GS: 79 knots
[18:25] TAS: 81 knots
[18:25] IAS: 81 knots
[18:25] VS: 733 fpm
[18:25] Flaps: Position 0
[18:25] GS: 83 knots
[18:25] TAS: 85 knots
[18:25] IAS: 85 knots
[18:25] VS: 762 fpm
[18:25] View Mode: Virtual Cockpit
[18:27] Autopilot: Engaged
[18:27] AGL: 1692 ft
[18:27] AMSL: 1692 ft
[18:27] Navigation Mode: GPS
[18:30] NOTE: TOC reached
[18:30] NOTE: Cruise started
[18:30] GS: 128 knots
[18:30] TAS: 122 knots
[18:30] IAS: 117 knots
[18:30] VS: 196 fpm
[18:30] FOB: 371 lbs
[18:30] Heading: 173°
[18:30] Pitch: 0°
[18:30] Bank: 0°
[18:30] Aircraft Weight: 2476.77 lbs
[18:33] NOTE: TOD reached
[18:33] NOTE: Descent started
[18:33] GS: 155 knots
[18:33] TAS: 155 knots
[18:33] IAS: 153 knots
[18:33] VS: -1351 fpm
[18:33] FOB: 366 lbs
[18:33] Heading: 174°
[18:33] Pitch: 5°
[18:33] Bank: 0°
[18:33] Aircraft Weight: 2470.95 lbs
[18:33] NOTE: On approach
[18:34] Autopilot: Disengaged
[18:34] AGL: 1131 ft
[18:34] AMSL: 1131 ft
[18:36] Flaps: Position 1
[18:36] GS: 83 knots
[18:36] TAS: 82 knots
[18:36] IAS: 82 knots
[18:36] VS: -638 fpm
[18:36] Flaps: Position 2
[18:36] GS: 73 knots
[18:36] TAS: 72 knots
[18:36] IAS: 72 knots
[18:36] VS: -278 fpm
[18:36] Flaps: Position 3
[18:36] GS: 64 knots
[18:36] TAS: 63 knots
[18:36] IAS: 63 knots
[18:36] VS: -629 fpm
[18:36] Flaps: Position 4
[18:36] GS: 60 knots
[18:36] TAS: 61 knots
[18:36] IAS: 60 knots
[18:36] VS: -688 fpm
[18:37] NOTE: ----- LANDED -----
[18:37] Landing Rate: -29.22 fpm
[18:37] GS: 44 knots
[18:37] TAS: 43 knots
[18:37] IAS: 43 knots
[18:37] VS: -29 fpm
[18:37] FOB: 360 lbs
[18:37] Heading: 165°
[18:37] Pitch: 9°
[18:37] Bank: 1°
[18:37] Aircraft Weight: 2465.94 lbs
[18:37] Nearest Airport: Z71
[18:37] Distance: 0.70 miles
[18:37] Runway: ???
[18:37] Ground Surface: Water
[18:37] Ground Condition: Normal
[18:37] NOTE: Weather Report
[18:37] Wind Heading: 338°
[18:37] Wind Speed: 0 knots
[18:37] OAT: 15° C
[18:37] TAT: 15° C
[18:37] Precipitation: None
[18:37] Dew Point: 4° C
[18:37] Visibility: 62 miles
[18:37] METAR: No METAR available for Z71.
[18:37] View Mode: Virtual Cockpit
[18:37] Flaps: Position 3
[18:37] Flaps: Position 2
[18:37] Flaps: Position 1
[18:37] NOTE: Taxi started
[18:37] Flaps: Position 0
[18:39] Light Data: Navigation OFF
[18:39] Light Data: Beacon OFF
[18:39] Light Data: Landing lights OFF
[18:39] Light Data: Taxi lights OFF
[18:39] Light Data: Strobe lights OFF
[18:39] Light Data: Instrument lights OFF
[18:39] Light Data: Recognition lights OFF
[18:39] Light Data: Wing lights OFF
[18:39] Light Data: Logo lights OFF
[18:39] Light Data: Cabin lights OFF
[18:39] Engine 1: Stopped
[18:39] Gate: n/a
[18:39] NOTE: Flight Completed
[18:39] FS Aircraft: C185F SKYWAGON AMPHIBIAN N2449F
[18:39] FS Model: C185
[18:39] FS Type: Cessna
[18:39] FOB: 360 lbs
[18:39] Fuel Used: 24 lbs
[18:39] Flight Time: 00:16:11
[18:39] Flight Time (Dawn): 00:05:54
[18:39] Flight Time (Day): 00:10:17
[18:39] Flight Time (Dusk): 00:00:00
[18:39] Flight Time (Night): 00:00:00
[18:39] Total Landings: 1
[18:39] MaxSim Rate: 0x
[18:39] Cigar Box - 1.1.2.0
[18:39] ----- Flight Closed -----

Comments

Commenter Comment
Norm Richards killer landing rate!! Nice one Brad. Norm

Route Map